sensor_id;sensor_type;location;lat;lon;timestamp;temperature;humidity
18444;DHT22;9350;53.176;8.194;2023-10-13T00:01:54;14.70;99.90
18444;DHT22;9350;53.176;8.194;2023-10-13T00:04:21;14.70;99.90
18444;DHT22;9350;53.176;8.194;2023-10-13T00:06:51;14.70;99.90
18444;DHT22;9350;53.176;8.194;2023-10-13T00:09:18;14.80;99.90
18444;DHT22;9350;53.176;8.194;2023-10-13T00:11:51;14.70;99.90
18444;DHT22;9350;53.176;8.194;2023-10-13T00:14:18;14.80;99.90
18444;DHT22;9350;53.176;8.194;2023-10-13T00:16:46;14.80;99.90
18444;DHT22;9350;53.176;8.194;2023-10-13T00:19:27;14.80;99.90
18444;DHT22;9350;53.176;8.194;2023-10-13T00:21:55;14.80;99.90
18444;DHT22;9350;53.176;8.194;2023-10-13T00:24:34;14.80;99.90
18444;DHT22;9350;53.176;8.194;2023-10-13T00:27:08;14.80;99.90
18444;DHT22;9350;53.176;8.194;2023-10-13T00:29:39;14.80;99.90
18444;DHT22;9350;53.176;8.194;2023-10-13T00:32:06;14.80;99.90
18444;DHT22;9350;53.176;8.194;2023-10-13T00:34:37;14.80;99.90
18444;DHT22;9350;53.176;8.194;2023-10-13T00:37:05;14.80;99.90
18444;DHT22;9350;53.176;8.194;2023-10-13T00:39:43;14.90;99.90
18444;DHT22;9350;53.176;8.194;2023-10-13T00:42:11;14.90;99.90
18444;DHT22;9350;53.176;8.194;2023-10-13T00:44:45;14.90;99.90
18444;DHT22;9350;53.176;8.194;2023-10-13T00:47:14;14.90;99.90
18444;DHT22;9350;53.176;8.194;2023-10-13T00:49:48;14.90;99.90
18444;DHT22;9350;53.176;8.194;2023-10-13T00:52:17;14.90;99.90
18444;DHT22;9350;53.176;8.194;2023-10-13T00:54:45;15.00;99.90
18444;DHT22;9350;53.176;8.194;2023-10-13T00:57:12;15.00;99.90
18444;DHT22;9350;53.176;8.194;2023-10-13T00:59:51;15.00;99.90
18444;DHT22;9350;53.176;8.194;2023-10-13T01:02:19;15.00;99.90
18444;DHT22;9350;53.176;8.194;2023-10-13T01:05:05;15.00;99.90
18444;DHT22;9350;53.176;8.194;2023-10-13T01:07:32;15.00;99.90
18444;DHT22;9350;53.176;8.194;2023-10-13T01:10:03;15.00;99.90
18444;DHT22;9350;53.176;8.194;2023-10-13T01:12:29;15.10;99.90
18444;DHT22;9350;53.176;8.194;2023-10-13T01:14:57;15.10;99.90
18444;DHT22;9350;53.176;8.194;2023-10-13T01:17:23;15.10;99.90
18444;DHT22;9350;53.176;8.194;2023-10-13T01:19:57;15.10;99.90
18444;DHT22;9350;53.176;8.194;2023-10-13T01:22:24;15.10;99.90
18444;DHT22;9350;53.176;8.194;2023-10-13T01:24:52;15.10;99.90
18444;DHT22;9350;53.176;8.194;2023-10-13T01:27:29;15.20;99.90
18444;DHT22;9350;53.176;8.194;2023-10-13T01:29:56;15.20;99.90
18444;DHT22;9350;53.176;8.194;2023-10-13T01:32:35;15.20;99.90
18444;DHT22;9350;53.176;8.194;2023-10-13T01:35:06;15.20;99.90
18444;DHT22;9350;53.176;8.194;2023-10-13T01:37:32;15.30;99.90
18444;DHT22;9350;53.176;8.194;2023-10-13T01:40:01;15.20;99.90
18444;DHT22;9350;53.176;8.194;2023-10-13T01:42:26;15.20;99.90
18444;DHT22;9350;53.176;8.194;2023-10-13T01:44:53;15.20;99.90
18444;DHT22;9350;53.176;8.194;2023-10-13T01:47:30;15.30;99.90
18444;DHT22;9350;53.176;8.194;2023-10-13T01:49:58;15.30;99.90
18444;DHT22;9350;53.176;8.194;2023-10-13T01:52:32;15.30;99.90
18444;DHT22;9350;53.176;8.194;2023-10-13T01:54:58;15.30;99.90
18444;DHT22;9350;53.176;8.194;2023-10-13T01:57:27;15.30;99.90
18444;DHT22;9350;53.176;8.194;2023-10-13T01:59:54;15.30;99.90
18444;DHT22;9350;53.176;8.194;2023-10-13T02:02:20;15.30;99.90
18444;DHT22;9350;53.176;8.194;2023-10-13T02:04:54;15.30;99.90
18444;DHT22;9350;53.176;8.194;2023-10-13T02:07:22;15.40;99.90
18444;DHT22;9350;53.176;8.194;2023-10-13T02:09:55;15.40;99.90
18444;DHT22;9350;53.176;8.194;2023-10-13T02:12:20;15.40;99.90
18444;DHT22;9350;53.176;8.194;2023-10-13T02:14:52;15.40;99.90
18444;DHT22;9350;53.176;8.194;2023-10-13T02:17:18;15.40;99.90
18444;DHT22;9350;53.176;8.194;2023-10-13T02:19:47;15.40;99.90
18444;DHT22;9350;53.176;8.194;2023-10-13T02:22:13;15.50;99.90
18444;DHT22;9350;53.176;8.194;2023-10-13T02:24:54;15.40;99.90
18444;DHT22;9350;53.176;8.194;2023-10-13T02:27:26;15.50;99.90
18444;DHT22;9350;53.176;8.194;2023-10-13T02:29:55;15.50;99.90
18444;DHT22;9350;53.176;8.194;2023-10-13T02:32:24;15.50;99.90
18444;DHT22;9350;53.176;8.194;2023-10-13T02:34:52;15.50;99.90
18444;DHT22;9350;53.176;8.194;2023-10-13T02:37:18;15.50;99.90
18444;DHT22;9350;53.176;8.194;2023-10-13T02:39:45;15.50;99.90
18444;DHT22;9350;53.176;8.194;2023-10-13T02:42:11;15.60;99.90
18444;DHT22;9350;53.176;8.194;2023-10-13T02:44:48;15.60;99.90
18444;DHT22;9350;53.176;8.194;2023-10-13T02:47:15;15.50;99.90
18444;DHT22;9350;53.176;8.194;2023-10-13T02:49:44;15.50;99.90
18444;DHT22;9350;53.176;8.194;2023-10-13T02:52:13;15.60;99.90
18444;DHT22;9350;53.176;8.194;2023-10-13T02:54:43;15.50;99.90
18444;DHT22;9350;53.176;8.194;2023-10-13T02:57:12;15.60;99.90
18444;DHT22;9350;53.176;8.194;2023-10-13T02:59:41;15.60;99.90
18444;DHT22;9350;53.176;8.194;2023-10-13T03:02:12;15.60;99.90
18444;DHT22;9350;53.176;8.194;2023-10-13T03:04:51;15.60;99.90
18444;DHT22;9350;53.176;8.194;2023-10-13T03:07:16;15.60;99.90
18444;DHT22;9350;53.176;8.194;2023-10-13T03:09:48;15.60;99.90
18444;DHT22;9350;53.176;8.194;2023-10-13T03:12:16;15.60;99.90
18444;DHT22;9350;53.176;8.194;2023-10-13T03:14:43;15.60;99.90
18444;DHT22;9350;53.176;8.194;2023-10-13T03:17:13;15.60;99.90
18444;DHT22;9350;53.176;8.194;2023-10-13T03:19:42;15.60;99.90
18444;DHT22;9350;53.176;8.194;2023-10-13T03:22:13;15.60;99.90
18444;DHT22;9350;53.176;8.194;2023-10-13T03:24:42;15.60;99.90
18444;DHT22;9350;53.176;8.194;2023-10-13T03:27:12;15.60;99.90
18444;DHT22;9350;53.176;8.194;2023-10-13T03:29:42;15.60;99.90
18444;DHT22;9350;53.176;8.194;2023-10-13T03:32:10;15.60;99.90
18444;DHT22;9350;53.176;8.194;2023-10-13T03:34:38;15.60;99.90
18444;DHT22;9350;53.176;8.194;2023-10-13T03:37:16;15.70;99.90
18444;DHT22;9350;53.176;8.194;2023-10-13T03:40:03;15.70;99.90
18444;DHT22;9350;53.176;8.194;2023-10-13T03:42:32;15.70;99.90
18444;DHT22;9350;53.176;8.194;2023-10-13T03:44:59;15.70;99.90
18444;DHT22;9350;53.176;8.194;2023-10-13T03:47:27;15.70;99.90
18444;DHT22;9350;53.176;8.194;2023-10-13T03:49:57;15.70;99.90
18444;DHT22;9350;53.176;8.194;2023-10-13T03:52:40;15.70;99.90
18444;DHT22;9350;53.176;8.194;2023-10-13T03:55:06;15.70;99.90
18444;DHT22;9350;53.176;8.194;2023-10-13T03:57:41;15.70;99.90
18444;DHT22;9350;53.176;8.194;2023-10-13T04:00:08;15.70;99.90
18444;DHT22;9350;53.176;8.194;2023-10-13T04:02:38;15.70;99.90
18444;DHT22;9350;53.176;8.194;2023-10-13T04:05:11;15.70;99.90
18444;DHT22;9350;53.176;8.194;2023-10-13T04:08:02;15.70;99.90
18444;DHT22;9350;53.176;8.194;2023-10-13T04:10:58;15.80;99.90
18444;DHT22;9350;53.176;8.194;2023-10-13T04:13:42;15.80;99.90
18444;DHT22;9350;53.176;8.194;2023-10-13T04:16:26;15.80;99.90
18444;DHT22;9350;53.176;8.194;2023-10-13T04:19:03;15.80;99.90
18444;DHT22;9350;53.176;8.194;2023-10-13T04:21:46;15.80;99.90
18444;DHT22;9350;53.176;8.194;2023-10-13T04:24:26;15.70;99.90
18444;DHT22;9350;53.176;8.194;2023-10-13T04:27:10;15.70;99.90
18444;DHT22;9350;53.176;8.194;2023-10-13T04:30:06;15.70;99.90
18444;DHT22;9350;53.176;8.194;2023-10-13T04:32:49;15.70;99.90
18444;DHT22;9350;53.176;8.194;2023-10-13T04:35:30;15.80;99.90
18444;DHT22;9350;53.176;8.194;2023-10-13T04:38:01;15.80;99.90
18444;DHT22;9350;53.176;8.194;2023-10-13T04:40:44;15.80;99.90
18444;DHT22;9350;53.176;8.194;2023-10-13T04:43:24;15.80;99.90
18444;DHT22;9350;53.176;8.194;2023-10-13T04:46:17;15.70;99.90
18444;DHT22;9350;53.176;8.194;2023-10-13T04:49:00;15.80;99.90
18444;DHT22;9350;53.176;8.194;2023-10-13T04:51:35;15.70;99.90
18444;DHT22;9350;53.176;8.194;2023-10-13T04:54:24;15.80;99.90
18444;DHT22;9350;53.176;8.194;2023-10-13T04:57:00;15.80;99.90
18444;DHT22;9350;53.176;8.194;2023-10-13T04:59:44;15.80;99.90
18444;DHT22;9350;53.176;8.194;2023-10-13T05:02:29;15.80;99.90
18444;DHT22;9350;53.176;8.194;2023-10-13T05:05:43;15.80;99.90
18444;DHT22;9350;53.176;8.194;2023-10-13T05:08:31;15.80;99.90
18444;DHT22;9350;53.176;8.194;2023-10-13T05:11:15;15.80;99.90
18444;DHT22;9350;53.176;8.194;2023-10-13T05:14:01;15.80;99.90
18444;DHT22;9350;53.176;8.194;2023-10-13T05:16:45;15.80;99.90
18444;DHT22;9350;53.176;8.194;2023-10-13T05:19:29;15.80;99.90
18444;DHT22;9350;53.176;8.194;2023-10-13T05:22:10;15.80;99.90
18444;DHT22;9350;53.176;8.194;2023-10-13T05:24:54;15.80;99.90
18444;DHT22;9350;53.176;8.194;2023-10-13T05:27:38;15.80;99.90
18444;DHT22;9350;53.176;8.194;2023-10-13T05:30:24;15.80;99.90
18444;DHT22;9350;53.176;8.194;2023-10-13T05:33:08;15.80;99.90
18444;DHT22;9350;53.176;8.194;2023-10-13T05:35:52;15.80;99.90
18444;DHT22;9350;53.176;8.194;2023-10-13T05:38:36;15.80;99.90
18444;DHT22;9350;53.176;8.194;2023-10-13T05:41:20;15.90;99.90
18444;DHT22;9350;53.176;8.194;2023-10-13T05:44:04;15.80;99.90
18444;DHT22;9350;53.176;8.194;2023-10-13T05:46:50;15.80;99.90
18444;DHT22;9350;53.176;8.194;2023-10-13T05:49:47;15.80;99.90
18444;DHT22;9350;53.176;8.194;2023-10-13T05:52:18;15.90;99.90
18444;DHT22;9350;53.176;8.194;2023-10-13T05:55:01;15.90;99.90
18444;DHT22;9350;53.176;8.194;2023-10-13T05:57:45;15.80;99.90
18444;DHT22;9350;53.176;8.194;2023-10-13T06:00:29;15.90;99.90
18444;DHT22;9350;53.176;8.194;2023-10-13T06:03:15;15.90;99.90
18444;DHT22;9350;53.176;8.194;2023-10-13T06:05:59;15.90;99.90
18444;DHT22;9350;53.176;8.194;2023-10-13T06:08:43;15.90;99.90
18444;DHT22;9350;53.176;8.194;2023-10-13T06:11:27;15.90;99.90
18444;DHT22;9350;53.176;8.194;2023-10-13T06:14:14;15.80;99.90
18444;DHT22;9350;53.176;8.194;2023-10-13T06:16:58;15.80;99.90
18444;DHT22;9350;53.176;8.194;2023-10-13T06:19:44;15.90;99.90
18444;DHT22;9350;53.176;8.194;2023-10-13T06:22:36;15.90;99.90
18444;DHT22;9350;53.176;8.194;2023-10-13T06:25:20;15.90;99.90
18444;DHT22;9350;53.176;8.194;2023-10-13T06:28:04;15.90;99.90
18444;DHT22;9350;53.176;8.194;2023-10-13T06:30:56;15.80;99.90
18444;DHT22;9350;53.176;8.194;2023-10-13T06:33:23;15.90;99.90
18444;DHT22;9350;53.176;8.194;2023-10-13T06:35:56;15.90;99.90
18444;DHT22;9350;53.176;8.194;2023-10-13T06:38:23;15.90;99.90
18444;DHT22;9350;53.176;8.194;2023-10-13T06:40:50;15.90;99.90
18444;DHT22;9350;53.176;8.194;2023-10-13T06:43:18;15.90;99.90
18444;DHT22;9350;53.176;8.194;2023-10-13T06:45:47;15.90;99.90
18444;DHT22;9350;53.176;8.194;2023-10-13T06:48:23;15.90;99.90
18444;DHT22;9350;53.176;8.194;2023-10-13T06:50:50;15.90;99.90
18444;DHT22;9350;53.176;8.194;2023-10-13T06:53:19;15.90;99.90
18444;DHT22;9350;53.176;8.194;2023-10-13T06:55:46;15.90;99.90
18444;DHT22;9350;53.176;8.194;2023-10-13T06:58:15;15.90;99.90
18444;DHT22;9350;53.176;8.194;2023-10-13T07:00:43;15.90;99.90
18444;DHT22;9350;53.176;8.194;2023-10-13T07:03:18;15.80;99.90
18444;DHT22;9350;53.176;8.194;2023-10-13T07:05:45;15.90;99.90
18444;DHT22;9350;53.176;8.194;2023-10-13T07:08:15;15.80;99.90
18444;DHT22;9350;53.176;8.194;2023-10-13T07:10:49;15.90;99.90
18444;DHT22;9350;53.176;8.194;2023-10-13T07:13:27;15.90;99.90
18444;DHT22;9350;53.176;8.194;2023-10-13T07:15:54;15.90;99.90
18444;DHT22;9350;53.176;8.194;2023-10-13T07:18:26;15.90;99.90
18444;DHT22;9350;53.176;8.194;2023-10-13T07:21:01;15.90;99.90
18444;DHT22;9350;53.176;8.194;2023-10-13T07:23:35;15.90;99.90
18444;DHT22;9350;53.176;8.194;2023-10-13T07:26:05;15.90;99.90
18444;DHT22;9350;53.176;8.194;2023-10-13T07:28:34;15.90;99.90
18444;DHT22;9350;53.176;8.194;2023-10-13T07:31:01;15.90;99.90
18444;DHT22;9350;53.176;8.194;2023-10-13T07:33:41;15.90;99.90
18444;DHT22;9350;53.176;8.194;2023-10-13T07:36:09;16.00;99.90
18444;DHT22;9350;53.176;8.194;2023-10-13T07:38:44;16.00;99.90
18444;DHT22;9350;53.176;8.194;2023-10-13T07:41:15;16.00;99.90
18444;DHT22;9350;53.176;8.194;2023-10-13T07:43:43;16.00;99.90
18444;DHT22;9350;53.176;8.194;2023-10-13T07:46:10;16.00;99.90
18444;DHT22;9350;53.176;8.194;2023-10-13T07:48:38;16.00;99.90
18444;DHT22;9350;53.176;8.194;2023-10-13T07:51:07;16.00;99.90
18444;DHT22;9350;53.176;8.194;2023-10-13T07:53:37;16.10;99.90
18444;DHT22;9350;53.176;8.194;2023-10-13T07:56:06;16.10;99.90
18444;DHT22;9350;53.176;8.194;2023-10-13T07:58:35;16.10;99.90
18444;DHT22;9350;53.176;8.194;2023-10-13T08:01:13;16.10;99.90
18444;DHT22;9350;53.176;8.194;2023-10-13T08:03:44;16.10;99.90
18444;DHT22;9350;53.176;8.194;2023-10-13T08:06:10;16.10;99.90
18444;DHT22;9350;53.176;8.194;2023-10-13T08:08:51;16.20;99.90
18444;DHT22;9350;53.176;8.194;2023-10-13T08:11:20;16.20;99.90
18444;DHT22;9350;53.176;8.194;2023-10-13T08:13:58;16.20;99.90
18444;DHT22;9350;53.176;8.194;2023-10-13T08:16:28;16.30;99.90
18444;DHT22;9350;53.176;8.194;2023-10-13T08:19:11;16.30;99.90
18444;DHT22;9350;53.176;8.194;2023-10-13T08:21:40;16.30;99.90
18444;DHT22;9350;53.176;8.194;2023-10-13T08:24:15;16.30;99.90
18444;DHT22;9350;53.176;8.194;2023-10-13T08:26:42;16.30;99.90
18444;DHT22;9350;53.176;8.194;2023-10-13T08:29:42;16.30;99.90
18444;DHT22;9350;53.176;8.194;2023-10-13T08:32:34;16.40;99.90
18444;DHT22;9350;53.176;8.194;2023-10-13T08:35:10;16.40;99.90
18444;DHT22;9350;53.176;8.194;2023-10-13T08:37:48;16.30;99.90
18444;DHT22;9350;53.176;8.194;2023-10-13T08:40:27;16.30;99.90
18444;DHT22;9350;53.176;8.194;2023-10-13T08:43:12;16.30;99.90
18444;DHT22;9350;53.176;8.194;2023-10-13T08:45:41;16.40;99.90
18444;DHT22;9350;53.176;8.194;2023-10-13T08:48:20;16.30;99.90
18444;DHT22;9350;53.176;8.194;2023-10-13T08:50:52;16.30;99.90
18444;DHT22;9350;53.176;8.194;2023-10-13T08:53:22;16.30;99.90
18444;DHT22;9350;53.176;8.194;2023-10-13T08:55:58;16.40;99.90
18444;DHT22;9350;53.176;8.194;2023-10-13T08:58:32;16.30;99.90
18444;DHT22;9350;53.176;8.194;2023-10-13T09:01:18;16.30;99.90
18444;DHT22;9350;53.176;8.194;2023-10-13T09:03:59;16.30;99.90
18444;DHT22;9350;53.176;8.194;2023-10-13T09:06:47;16.40;99.90
18444;DHT22;9350;53.176;8.194;2023-10-13T09:09:17;16.40;99.90
18444;DHT22;9350;53.176;8.194;2023-10-13T09:11:59;16.40;99.90
18444;DHT22;9350;53.176;8.194;2023-10-13T09:14:34;16.40;99.90
18444;DHT22;9350;53.176;8.194;2023-10-13T09:17:04;16.40;99.90
18444;DHT22;9350;53.176;8.194;2023-10-13T09:19:44;16.40;99.90
18444;DHT22;9350;53.176;8.194;2023-10-13T09:22:21;16.40;99.90
18444;DHT22;9350;53.176;8.194;2023-10-13T09:24:57;16.40;99.90
18444;DHT22;9350;53.176;8.194;2023-10-13T09:27:26;16.40;99.90
18444;DHT22;9350;53.176;8.194;2023-10-13T09:29:59;16.50;99.90
18444;DHT22;9350;53.176;8.194;2023-10-13T09:32:36;16.50;99.90
18444;DHT22;9350;53.176;8.194;2023-10-13T09:35:17;16.50;99.90
18444;DHT22;9350;53.176;8.194;2023-10-13T09:37:45;16.60;99.90
18444;DHT22;9350;53.176;8.194;2023-10-13T09:40:15;16.60;99.90
18444;DHT22;9350;53.176;8.194;2023-10-13T09:42:59;16.60;99.90
18444;DHT22;9350;53.176;8.194;2023-10-13T09:45:32;16.60;99.90
18444;DHT22;9350;53.176;8.194;2023-10-13T09:48:04;16.70;99.90
18444;DHT22;9350;53.176;8.194;2023-10-13T09:50:37;16.70;99.90
18444;DHT22;9350;53.176;8.194;2023-10-13T09:53:06;16.70;99.90
18444;DHT22;9350;53.176;8.194;2023-10-13T09:55:38;16.80;99.90
18444;DHT22;9350;53.176;8.194;2023-10-13T09:58:07;16.80;99.90
18444;DHT22;9350;53.176;8.194;2023-10-13T10:00:43;16.80;99.90
18444;DHT22;9350;53.176;8.194;2023-10-13T10:03:13;16.90;99.90
18444;DHT22;9350;53.176;8.194;2023-10-13T10:05:58;16.90;99.90
18444;DHT22;9350;53.176;8.194;2023-10-13T10:08:32;17.00;99.90
18444;DHT22;9350;53.176;8.194;2023-10-13T10:14:07;17.10;99.90
18444;DHT22;9350;53.176;8.194;2023-10-13T10:16:47;17.20;99.90
18444;DHT22;9350;53.176;8.194;2023-10-13T10:19:16;17.20;99.90
18444;DHT22;9350;53.176;8.194;2023-10-13T10:21:44;17.20;99.90
18444;DHT22;9350;53.176;8.194;2023-10-13T10:24:14;17.30;99.90
18444;DHT22;9350;53.176;8.194;2023-10-13T10:26:52;17.20;99.90
18444;DHT22;9350;53.176;8.194;2023-10-13T10:29:19;17.20;99.90
18444;DHT22;9350;53.176;8.194;2023-10-13T10:31:46;17.20;99.90
18444;DHT22;9350;53.176;8.194;2023-10-13T10:34:13;17.30;99.90
18444;DHT22;9350;53.176;8.194;2023-10-13T10:36:46;17.30;99.90
18444;DHT22;9350;53.176;8.194;2023-10-13T10:39:13;17.30;99.90
18444;DHT22;9350;53.176;8.194;2023-10-13T10:41:41;17.30;99.90
18444;DHT22;9350;53.176;8.194;2023-10-13T10:44:17;17.30;99.90
18444;DHT22;9350;53.176;8.194;2023-10-13T10:46:48;17.30;99.90
18444;DHT22;9350;53.176;8.194;2023-10-13T10:49:23;17.30;99.90
18444;DHT22;9350;53.176;8.194;2023-10-13T10:51:58;17.50;99.90
18444;DHT22;9350;53.176;8.194;2023-10-13T10:54:29;17.50;99.90
18444;DHT22;9350;53.176;8.194;2023-10-13T10:56:57;17.50;99.90
18444;DHT22;9350;53.176;8.194;2023-10-13T10:59:36;17.60;99.90
18444;DHT22;9350;53.176;8.194;2023-10-13T11:02:03;17.60;99.90
18444;DHT22;9350;53.176;8.194;2023-10-13T11:04:32;17.60;99.90
18444;DHT22;9350;53.176;8.194;2023-10-13T11:07:02;17.60;99.90
18444;DHT22;9350;53.176;8.194;2023-10-13T11:09:30;17.60;99.90
18444;DHT22;9350;53.176;8.194;2023-10-13T11:12:10;17.70;99.90
18444;DHT22;9350;53.176;8.194;2023-10-13T11:14:59;17.60;99.90
18444;DHT22;9350;53.176;8.194;2023-10-13T11:17:26;17.70;99.90
18444;DHT22;9350;53.176;8.194;2023-10-13T11:20:08;17.70;99.90
18444;DHT22;9350;53.176;8.194;2023-10-13T11:22:45;17.80;99.90
18444;DHT22;9350;53.176;8.194;2023-10-13T11:25:20;17.80;99.90
18444;DHT22;9350;53.176;8.194;2023-10-13T11:27:48;17.80;99.90
18444;DHT22;9350;53.176;8.194;2023-10-13T11:30:26;17.80;99.90
18444;DHT22;9350;53.176;8.194;2023-10-13T11:32:59;17.80;99.90
18444;DHT22;9350;53.176;8.194;2023-10-13T11:35:29;17.90;99.90
18444;DHT22;9350;53.176;8.194;2023-10-13T11:38:16;17.90;99.90
18444;DHT22;9350;53.176;8.194;2023-10-13T11:40:51;17.90;99.90
18444;DHT22;9350;53.176;8.194;2023-10-13T11:43:39;17.90;99.90
18444;DHT22;9350;53.176;8.194;2023-10-13T11:46:37;17.80;99.90
18444;DHT22;9350;53.176;8.194;2023-10-13T11:49:22;17.80;99.90
18444;DHT22;9350;53.176;8.194;2023-10-13T11:52:02;17.80;99.90
18444;DHT22;9350;53.176;8.194;2023-10-13T11:54:42;17.90;99.90
18444;DHT22;9350;53.176;8.194;2023-10-13T11:57:09;17.90;99.90
18444;DHT22;9350;53.176;8.194;2023-10-13T11:59:36;18.00;99.90
18444;DHT22;9350;53.176;8.194;2023-10-13T12:02:11;18.00;99.90
18444;DHT22;9350;53.176;8.194;2023-10-13T12:04:56;18.00;99.90
18444;DHT22;9350;53.176;8.194;2023-10-13T12:07:24;17.90;99.90
18444;DHT22;9350;53.176;8.194;2023-10-13T12:10:07;17.90;99.90
18444;DHT22;9350;53.176;8.194;2023-10-13T12:12:41;17.90;99.90
18444;DHT22;9350;53.176;8.194;2023-10-13T12:15:09;18.00;99.90
18444;DHT22;9350;53.176;8.194;2023-10-13T12:17:40;18.00;99.90
18444;DHT22;9350;53.176;8.194;2023-10-13T12:20:11;18.00;99.90
18444;DHT22;9350;53.176;8.194;2023-10-13T12:22:44;18.00;99.90
18444;DHT22;9350;53.176;8.194;2023-10-13T12:25:21;18.00;99.90
18444;DHT22;9350;53.176;8.194;2023-10-13T12:28:00;18.10;99.90
18444;DHT22;9350;53.176;8.194;2023-10-13T12:30:38;18.10;99.90
18444;DHT22;9350;53.176;8.194;2023-10-13T12:33:15;18.20;99.90
18444;DHT22;9350;53.176;8.194;2023-10-13T12:35:49;18.20;99.90
18444;DHT22;9350;53.176;8.194;2023-10-13T12:38:29;18.30;99.90
18444;DHT22;9350;53.176;8.194;2023-10-13T12:41:18;18.20;99.90
18444;DHT22;9350;53.176;8.194;2023-10-13T12:44:03;18.20;99.90
18444;DHT22;9350;53.176;8.194;2023-10-13T12:46:48;18.30;99.90
18444;DHT22;9350;53.176;8.194;2023-10-13T12:49:32;18.30;99.90
18444;DHT22;9350;53.176;8.194;2023-10-13T12:52:15;18.30;99.90
18444;DHT22;9350;53.176;8.194;2023-10-13T12:54:46;18.20;99.90
18444;DHT22;9350;53.176;8.194;2023-10-13T12:57:25;18.20;99.90
18444;DHT22;9350;53.176;8.194;2023-10-13T12:59:52;18.20;99.90
18444;DHT22;9350;53.176;8.194;2023-10-13T13:02:20;18.20;99.90
18444;DHT22;9350;53.176;8.194;2023-10-13T13:04:46;18.20;99.90
18444;DHT22;9350;53.176;8.194;2023-10-13T13:07:18;18.20;99.90
18444;DHT22;9350;53.176;8.194;2023-10-13T13:09:45;18.30;99.90
18444;DHT22;9350;53.176;8.194;2023-10-13T13:12:12;18.30;99.90
18444;DHT22;9350;53.176;8.194;2023-10-13T13:14:40;18.20;99.90
18444;DHT22;9350;53.176;8.194;2023-10-13T13:17:11;18.20;99.90
18444;DHT22;9350;53.176;8.194;2023-10-13T13:19:38;18.20;99.90
18444;DHT22;9350;53.176;8.194;2023-10-13T13:22:06;18.20;99.90
18444;DHT22;9350;53.176;8.194;2023-10-13T13:24:37;18.10;99.90
18444;DHT22;9350;53.176;8.194;2023-10-13T13:27:09;18.10;99.90
18444;DHT22;9350;53.176;8.194;2023-10-13T13:29:40;18.10;99.90
18444;DHT22;9350;53.176;8.194;2023-10-13T13:32:07;18.10;99.90
18444;DHT22;9350;53.176;8.194;2023-10-13T13:34:43;18.10;99.90
18444;DHT22;9350;53.176;8.194;2023-10-13T13:37:10;18.10;99.90
18444;DHT22;9350;53.176;8.194;2023-10-13T13:39:38;18.10;99.90
18444;DHT22;9350;53.176;8.194;2023-10-13T13:42:09;18.10;99.90
18444;DHT22;9350;53.176;8.194;2023-10-13T13:44:36;18.10;99.90
18444;DHT22;9350;53.176;8.194;2023-10-13T13:47:04;18.20;99.90
18444;DHT22;9350;53.176;8.194;2023-10-13T13:49:37;18.20;99.90
18444;DHT22;9350;53.176;8.194;2023-10-13T13:52:06;18.20;99.90
18444;DHT22;9350;53.176;8.194;2023-10-13T13:54:33;18.20;99.90
18444;DHT22;9350;53.176;8.194;2023-10-13T13:56:59;18.20;99.90
18444;DHT22;9350;53.176;8.194;2023-10-13T13:59:26;18.20;99.90
18444;DHT22;9350;53.176;8.194;2023-10-13T14:02:00;18.30;99.90
18444;DHT22;9350;53.176;8.194;2023-10-13T14:04:33;18.40;99.90
18444;DHT22;9350;53.176;8.194;2023-10-13T14:07:00;18.40;99.90
18444;DHT22;9350;53.176;8.194;2023-10-13T14:09:32;18.40;99.90
18444;DHT22;9350;53.176;8.194;2023-10-13T14:12:01;18.50;99.90
18444;DHT22;9350;53.176;8.194;2023-10-13T14:14:55;18.50;99.90
18444;DHT22;9350;53.176;8.194;2023-10-13T14:17:22;18.50;99.90
18444;DHT22;9350;53.176;8.194;2023-10-13T14:19:56;18.40;99.90
18444;DHT22;9350;53.176;8.194;2023-10-13T14:22:23;18.60;99.90
18444;DHT22;9350;53.176;8.194;2023-10-13T14:24:51;18.60;99.90
18444;DHT22;9350;53.176;8.194;2023-10-13T14:27:21;18.60;99.90
18444;DHT22;9350;53.176;8.194;2023-10-13T14:29:48;18.60;99.90
18444;DHT22;9350;53.176;8.194;2023-10-13T14:32:19;18.70;99.90
18444;DHT22;9350;53.176;8.194;2023-10-13T14:34:50;18.50;99.90
18444;DHT22;9350;53.176;8.194;2023-10-13T14:37:21;18.70;99.90
18444;DHT22;9350;53.176;8.194;2023-10-13T14:39:52;18.70;99.90
18444;DHT22;9350;53.176;8.194;2023-10-13T14:42:22;18.70;99.90
18444;DHT22;9350;53.176;8.194;2023-10-13T14:44:49;18.60;99.90
18444;DHT22;9350;53.176;8.194;2023-10-13T14:47:21;18.60;99.90
18444;DHT22;9350;53.176;8.194;2023-10-13T14:49:51;18.60;99.90
18444;DHT22;9350;53.176;8.194;2023-10-13T14:52:21;18.60;99.90
18444;DHT22;9350;53.176;8.194;2023-10-13T14:54:48;18.60;99.90
18444;DHT22;9350;53.176;8.194;2023-10-13T14:57:20;18.60;99.90
18444;DHT22;9350;53.176;8.194;2023-10-13T14:59:50;18.60;99.90
18444;DHT22;9350;53.176;8.194;2023-10-13T15:02:17;18.70;99.90
18444;DHT22;9350;53.176;8.194;2023-10-13T15:04:43;18.70;99.90
18444;DHT22;9350;53.176;8.194;2023-10-13T15:07:14;18.60;99.90
18444;DHT22;9350;53.176;8.194;2023-10-13T15:09:43;18.60;99.90
18444;DHT22;9350;53.176;8.194;2023-10-13T15:12:10;18.60;99.90
18444;DHT22;9350;53.176;8.194;2023-10-13T15:14:37;18.50;99.90
18444;DHT22;9350;53.176;8.194;2023-10-13T15:17:05;18.50;99.90
18444;DHT22;9350;53.176;8.194;2023-10-13T15:19:32;18.50;99.90
18444;DHT22;9350;53.176;8.194;2023-10-13T15:22:03;18.50;99.90
18444;DHT22;9350;53.176;8.194;2023-10-13T15:24:32;18.50;99.90
18444;DHT22;9350;53.176;8.194;2023-10-13T15:27:03;18.50;99.90
18444;DHT22;9350;53.176;8.194;2023-10-13T15:29:34;18.50;99.90
18444;DHT22;9350;53.176;8.194;2023-10-13T15:32:02;18.50;99.90
18444;DHT22;9350;53.176;8.194;2023-10-13T15:34:51;18.70;99.90
18444;DHT22;9350;53.176;8.194;2023-10-13T15:37:18;18.70;99.90
18444;DHT22;9350;53.176;8.194;2023-10-13T15:39:45;18.60;99.90
18444;DHT22;9350;53.176;8.194;2023-10-13T15:42:13;18.50;99.90
18444;DHT22;9350;53.176;8.194;2023-10-13T15:44:40;18.50;99.90
18444;DHT22;9350;53.176;8.194;2023-10-13T15:47:08;18.40;99.90
18444;DHT22;9350;53.176;8.194;2023-10-13T15:49:37;18.40;99.90
18444;DHT22;9350;53.176;8.194;2023-10-13T15:52:06;18.30;99.90
18444;DHT22;9350;53.176;8.194;2023-10-13T15:54:34;18.30;99.90
18444;DHT22;9350;53.176;8.194;2023-10-13T15:57:01;18.20;99.90
18444;DHT22;9350;53.176;8.194;2023-10-13T15:59:33;18.20;99.90
18444;DHT22;9350;53.176;8.194;2023-10-13T16:02:01;18.10;99.90
18444;DHT22;9350;53.176;8.194;2023-10-13T16:04:32;18.10;99.90
18444;DHT22;9350;53.176;8.194;2023-10-13T16:06:59;18.00;99.90
18444;DHT22;9350;53.176;8.194;2023-10-13T16:09:26;17.90;99.90
18444;DHT22;9350;53.176;8.194;2023-10-13T16:11:53;17.90;99.90
18444;DHT22;9350;53.176;8.194;2023-10-13T16:14:20;17.90;99.90
18444;DHT22;9350;53.176;8.194;2023-10-13T16:16:49;17.90;99.90
18444;DHT22;9350;53.176;8.194;2023-10-13T16:19:20;17.90;99.90
18444;DHT22;9350;53.176;8.194;2023-10-13T16:21:48;17.90;99.90
18444;DHT22;9350;53.176;8.194;2023-10-13T16:24:15;17.80;99.90
18444;DHT22;9350;53.176;8.194;2023-10-13T16:26:44;17.90;99.90
18444;DHT22;9350;53.176;8.194;2023-10-13T16:29:14;17.90;99.90